Time;durP1;ratioP1;P1;durP2;ratioP2;P2;SDS_P1;SDS_P2;PMS_P1;PMS_P2;Temp;Humidity;BMP_temperature;BMP_pressure;BME280_temperature;BME280_humidity;BME280_pressure;Samples;Min_cycle;Max_cycle;Signal;HPM_P1;HPM_P2
2023/11/01 00:01:48;;;;;;;5.93;2.90;;;;;;;14.39;56.19;94461.41;5106629;28;20031;-74
2023/11/01 00:04:13;;;;;;;5.60;2.63;;;;;;;14.46;56.09;94459.00;5105048;28;20039;-75
2023/11/01 00:06:39;;;;;;;6.55;2.67;;;;;;;14.57;53.51;94448.28;5070185;28;20023;-74
2023/11/01 00:09:04;;;;;;;5.97;3.03;;;;;;;14.81;52.66;94470.19;5089174;28;20028;-75
2023/11/01 00:11:30;;;;;;;5.38;2.80;;;;;;;14.73;53.69;94474.41;5106415;28;20028;-74
2023/11/01 00:13:55;;;;;;;4.57;2.47;;;;;;;14.71;54.22;94476.41;5105286;28;20405;-74
2023/11/01 00:16:20;;;;;;;6.18;2.95;;;;;;;14.72;54.21;94467.56;5105448;28;20031;-74
2023/11/01 00:18:46;;;;;;;7.68;3.10;;;;;;;14.81;55.34;94484.06;5105536;28;20076;-74
2023/11/01 00:21:11;;;;;;;5.35;2.75;;;;;;;14.80;54.96;94486.88;5088893;28;20043;-74
2023/11/01 00:23:37;;;;;;;7.68;3.33;;;;;;;14.68;54.52;94475.88;5122554;27;20042;-74
2023/11/01 00:26:02;;;;;;;6.78;3.22;;;;;;;14.80;55.87;94477.22;5087563;28;20417;-74
2023/11/01 00:28:28;;;;;;;4.97;2.90;;;;;;;14.48;56.28;94443.94;5103847;28;20063;-74
2023/11/01 00:30:53;;;;;;;6.40;2.97;;;;;;;14.76;56.53;94478.50;5106412;28;20424;-75
2023/11/01 00:33:18;;;;;;;4.60;2.83;;;;;;;14.71;56.61;94476.41;5104780;28;20039;-74
2023/11/01 00:35:44;;;;;;;5.85;3.25;;;;;;;14.72;56.23;94478.03;5103817;28;20042;-74
2023/11/01 00:38:09;;;;;;;5.80;3.25;;;;;;;14.62;55.47;94477.34;5089910;28;20115;-75
2023/11/01 00:40:35;;;;;;;6.05;3.40;;;;;;;14.46;55.34;94453.75;5105433;28;20031;-75
2023/11/01 00:43:00;;;;;;;6.78;3.08;;;;;;;14.63;56.11;94463.31;5102825;28;20047;-75
2023/11/01 00:45:26;;;;;;;7.60;3.10;;;;;;;14.66;57.55;94485.69;5091548;28;20031;-75
2023/11/01 00:47:51;;;;;;;9.02;3.30;;;;;;;14.37;58.46;94494.69;5090150;28;20032;-74
2023/11/01 00:50:16;;;;;;;7.75;3.50;;;;;;;14.46;58.72;94506.84;5108137;28;20028;-77
2023/11/01 00:52:42;;;;;;;6.22;3.97;;;;;;;14.60;59.47;94496.75;5090201;28;20043;-74
2023/11/01 00:55:08;;;;;;;6.28;3.10;;;;;;;14.37;60.80;94501.72;5091007;28;20106;-74
2023/11/01 00:57:33;;;;;;;6.80;2.83;;;;;;;14.36;61.86;94500.09;5108382;28;20039;-74
2023/11/01 00:59:59;;;;;;;5.75;3.22;;;;;;;14.18;62.65;94495.78;5100940;28;20455;-74
2023/11/01 01:02:24;;;;;;;6.32;3.20;;;;;;;14.18;62.62;94506.25;5107472;28;20477;-74
2023/11/01 01:04:50;;;;;;;5.50;2.90;;;;;;;14.28;63.30;94516.56;5109637;28;20024;-74
2023/11/01 01:07:15;;;;;;;6.40;3.40;;;;;;;14.30;64.61;94527.69;5110609;28;20050;-74
2023/11/01 01:09:41;;;;;;;6.93;3.38;;;;;;;13.75;66.45;94521.00;5109422;28;20028;-74
2023/11/01 01:12:06;;;;;;;6.72;3.75;;;;;;;13.73;67.01;94509.06;5094813;28;20404;-74
2023/11/01 01:14:32;;;;;;;4.30;3.08;;;;;;;13.59;67.52;94497.41;5114464;28;20398;-74
2023/11/01 01:16:57;;;;;;;8.85;3.53;;;;;;;13.79;68.99;94480.59;5112783;28;20425;-74
2023/11/01 01:19:23;;;;;;;7.30;3.30;;;;;;;13.75;68.66;94483.66;5069065;28;20512;-74
2023/11/01 01:21:48;;;;;;;7.53;3.38;;;;;;;13.83;70.24;94487.13;5092412;28;20493;-74
2023/11/01 01:24:14;;;;;;;9.25;3.72;;;;;;;13.77;70.25;94489.53;5100346;28;20059;-75
2023/11/01 01:26:40;;;;;;;7.65;3.20;;;;;;;13.64;71.13;94503.81;5094867;28;20200;-72
2023/11/01 01:29:05;;;;;;;4.55;3.28;;;;;;;13.83;72.04;94510.63;5111462;28;20016;-73
2023/11/01 01:31:32;;;;;;;6.55;4.28;;;;;;;13.62;70.86;94487.50;5112117;28;20050;-72
2023/11/01 01:33:58;;;;;;;7.72;3.80;;;;;;;13.60;71.48;94496.44;5095587;28;20024;-73
2023/11/01 01:36:23;;;;;;;9.02;4.00;;;;;;;13.53;71.47;94477.16;5111109;28;20024;-72
2023/11/01 01:38:49;;;;;;;6.05;3.95;;;;;;;13.45;71.74;94497.97;5095413;28;20106;-72
2023/11/01 01:41:14;;;;;;;5.65;3.45;;;;;;;13.58;72.67;94491.38;5114186;28;20031;-72
2023/11/01 01:43:39;;;;;;;8.73;3.88;;;;;;;13.26;73.02;94497.19;5112376;28;20051;-72
2023/11/01 01:46:09;;;;;;;9.38;4.13;;;;;;;13.20;72.92;94497.72;5123485;27;20035;-72
2023/11/01 01:48:35;;;;;;;7.68;4.03;;;;;;;13.30;73.53;94492.47;5093881;28;20035;-72
2023/11/01 01:51:02;;;;;;;7.85;3.65;;;;;;;13.18;73.41;94481.44;5095292;28;20028;-72
2023/11/01 01:53:27;;;;;;;6.70;3.53;;;;;;;13.25;73.28;94511.16;5095274;28;20039;-73
2023/11/01 01:55:52;;;;;;;10.57;3.75;;;;;;;12.72;75.69;94507.56;5111091;28;20035;-72
2023/11/01 01:58:18;;;;;;;6.05;3.35;;;;;;;12.97;74.59;94503.41;5095131;28;20477;-74
2023/11/01 02:00:43;;;;;;;6.68;3.60;;;;;;;12.58;76.03;94509.88;5111876;28;20100;-71
2023/11/01 02:03:09;;;;;;;6.13;3.58;;;;;;;12.62;75.32;94495.56;5111556;28;20035;-72
2023/11/01 02:05:34;;;;;;;7.25;3.63;;;;;;;12.76;75.63;94523.75;5110880;28;20043;-73
2023/11/01 02:08:00;;;;;;;5.07;3.20;;;;;;;12.75;75.08;94527.31;5111878;28;20525;-72
2023/11/01 02:10:25;;;;;;;6.05;3.30;;;;;;;12.81;75.17;94538.94;5095099;28;20524;-73
2023/11/01 02:12:51;;;;;;;5.57;2.95;;;;;;;13.09;73.90;94537.09;5093281;28;20085;-73
2023/11/01 02:15:17;;;;;;;5.10;2.88;;;;;;;13.00;73.79;94527.56;5111403;28;20118;-73
2023/11/01 02:17:42;;;;;;;5.57;3.50;;;;;;;12.86;75.50;94508.84;5111838;28;20028;-73
2023/11/01 02:20:10;;;;;;;5.75;3.15;;;;;;;12.90;75.93;94525.84;5111711;28;20055;-73
2023/11/01 02:22:35;;;;;;;7.00;3.38;;;;;;;12.93;76.17;94541.19;5109843;28;20020;-73
2023/11/01 02:25:01;;;;;;;12.57;4.25;;;;;;;13.06;76.60;94537.38;5112013;27;20084;-73
2023/11/01 02:27:28;;;;;;;10.27;4.05;;;;;;;12.92;76.45;94529.09;5112806;28;20039;-73
2023/11/01 02:29:54;;;;;;;7.32;3.80;;;;;;;12.92;76.55;94510.84;5094871;28;20537;-73
2023/11/01 02:32:21;;;;;;;9.18;4.20;;;;;;;12.81;77.65;94505.03;5111062;28;20028;-73
2023/11/01 02:34:47;;;;;;;8.30;4.18;;;;;;;12.75;77.75;94506.44;5110961;28;20542;-73
2023/11/01 02:37:12;;;;;;;8.80;4.20;;;;;;;12.74;77.88;94504.81;5111280;28;20035;-73
2023/11/01 02:39:38;;;;;;;6.38;4.38;;;;;;;12.67;78.39;94488.94;5112611;28;20031;-73
2023/11/01 02:42:04;;;;;;;5.85;3.95;;;;;;;12.82;78.02;94507.50;5088151;28;20065;-73
2023/11/01 02:44:29;;;;;;;11.55;4.88;;;;;;;12.72;78.28;94538.03;5111315;28;20044;-73
2023/11/01 02:46:55;;;;;;;10.85;5.05;;;;;;;13.03;78.32;94525.47;5112556;28;20050;-73
2023/11/01 02:49:20;;;;;;;6.05;4.28;;;;;;;12.99;78.09;94544.19;5092703;28;20504;-73
2023/11/01 02:51:46;;;;;;;7.60;4.35;;;;;;;12.92;78.52;94539.53;5110861;28;20035;-73
2023/11/01 02:54:11;;;;;;;10.18;3.90;;;;;;;12.71;79.06;94534.59;5110464;28;20043;-73
2023/11/01 02:56:37;;;;;;;5.75;3.92;;;;;;;12.19;82.41;94547.34;5112188;28;20031;-73
2023/11/01 02:59:02;;;;;;;9.10;4.28;;;;;;;12.41;81.68;94533.13;5100145;28;20024;-73
2023/11/01 03:01:28;;;;;;;10.40;4.28;;;;;;;12.60;81.01;94541.81;5090540;28;20039;-73
2023/11/01 03:03:53;;;;;;;9.88;4.28;;;;;;;12.57;80.51;94542.09;5102070;28;20020;-73
2023/11/01 03:06:19;;;;;;;5.93;3.88;;;;;;;12.50;80.70;94549.66;5111462;28;20027;-73
2023/11/01 03:08:46;;;;;;;7.07;4.10;;;;;;;12.65;80.84;94550.03;5110783;28;20028;-73
2023/11/01 03:11:11;;;;;;;10.10;4.60;;;;;;;12.47;81.21;94542.13;5110923;28;20062;-73
2023/11/01 03:13:36;;;;;;;7.25;4.35;;;;;;;12.64;81.06;94548.34;5110469;28;20039;-73
2023/11/01 03:16:02;;;;;;;7.95;3.97;;;;;;;12.60;81.18;94536.59;5108941;28;20047;-73
2023/11/01 03:18:28;;;;;;;8.70;4.35;;;;;;;12.68;80.83;94542.72;5110588;28;20020;-73
2023/11/01 03:20:54;;;;;;;7.53;4.50;;;;;;;12.61;80.82;94543.44;5110689;28;20028;-73
2023/11/01 03:23:19;;;;;;;9.48;4.55;;;;;;;12.55;80.62;94542.25;5089837;28;20093;-73
2023/11/01 03:25:45;;;;;;;7.40;4.60;;;;;;;12.68;80.75;94560.97;5091315;28;20028;-73
2023/11/01 03:28:10;;;;;;;9.60;4.40;;;;;;;12.92;80.43;94565.59;5089952;28;20475;-73
2023/11/01 03:30:35;;;;;;;8.43;4.35;;;;;;;13.05;79.72;94548.78;5107206;28;20032;-73
2023/11/01 03:33:01;;;;;;;8.45;4.90;;;;;;;12.75;80.31;94542.94;5093093;28;20288;-73
2023/11/01 03:35:27;;;;;;;7.07;4.80;;;;;;;12.77;80.36;94561.06;5110398;28;20092;-73
2023/11/01 03:37:52;;;;;;;7.57;4.80;;;;;;;12.79;79.82;94552.13;5110307;28;20091;-73
2023/11/01 03:40:18;;;;;;;8.13;4.80;;;;;;;12.73;79.90;94555.28;5110421;28;20035;-73
2023/11/01 03:42:43;;;;;;;6.50;4.15;;;;;;;12.64;80.09;94540.53;5109818;28;20046;-73
2023/11/01 03:45:09;;;;;;;10.32;4.78;;;;;;;12.69;80.03;94540.94;5111097;28;20038;-73
2023/11/01 03:47:35;;;;;;;8.30;4.55;;;;;;;12.66;80.24;94528.19;5110055;28;20063;-73
2023/11/01 03:50:01;;;;;;;7.30;4.90;;;;;;;12.66;80.42;94544.63;5110220;28;20045;-73
2023/11/01 03:52:26;;;;;;;8.70;5.15;;;;;;;12.63;80.01;94531.09;5109580;28;20032;-73
2023/11/01 03:54:52;;;;;;;6.38;4.18;;;;;;;12.78;79.49;94545.25;5092814;28;20039;-73
2023/11/01 03:57:17;;;;;;;9.85;4.35;;;;;;;12.56;79.72;94548.25;5110896;28;20024;-73
2023/11/01 03:59:43;;;;;;;7.85;4.30;;;;;;;12.26;80.45;94531.97;5111413;28;20031;-73
2023/11/01 04:02:08;;;;;;;6.38;4.07;;;;;;;12.03;82.16;94553.13;5127068;28;20443;-73
2023/11/01 04:04:34;;;;;;;7.10;4.15;;;;;;;11.91;82.68;94545.66;5110805;28;20032;-73
2023/11/01 04:06:59;;;;;;;9.13;5.05;;;;;;;12.25;82.21;94551.16;5092952;28;20032;-73
2023/11/01 04:09:25;;;;;;;8.00;4.55;;;;;;;12.11;81.63;94538.59;5109416;28;20393;-73
2023/11/01 04:11:51;;;;;;;12.00;4.63;;;;;;;12.09;81.80;94546.56;5109985;28;20032;-73
2023/11/01 04:14:16;;;;;;;6.75;4.38;;;;;;;12.24;81.11;94554.72;5109680;28;20039;-73
2023/11/01 04:16:42;;;;;;;7.13;4.20;;;;;;;12.18;80.23;94560.53;5109588;28;20489;-73
2023/11/01 04:19:07;;;;;;;6.63;4.40;;;;;;;11.99;80.42;94549.19;5092781;28;20028;-73
2023/11/01 04:21:33;;;;;;;5.68;4.05;;;;;;;11.93;80.30;94541.16;5109915;28;20020;-73
2023/11/01 04:23:58;;;;;;;9.30;4.60;;;;;;;11.92;80.11;94555.91;5109780;28;20020;-73
2023/11/01 04:26:23;;;;;;;5.85;3.83;;;;;;;11.61;81.38;94553.50;5109238;28;20539;-73
2023/11/01 04:28:49;;;;;;;6.43;4.15;;;;;;;11.66;81.66;94547.06;5109622;28;20474;-73
2023/11/01 04:31:14;;;;;;;7.55;4.32;;;;;;;11.62;81.73;94552.53;5109921;28;20067;-73
2023/11/01 04:33:40;;;;;;;6.90;4.10;;;;;;;11.44;80.62;94541.19;5092764;28;20024;-73
2023/11/01 04:36:08;;;;;;;7.03;4.40;;;;;;;11.42;80.81;94558.72;5109335;28;20035;-73
2023/11/01 04:38:37;;;;;;;6.82;4.38;;;;;;;11.40;80.98;94568.47;5104010;28;20034;-73
2023/11/01 04:41:03;;;;;;;7.50;3.65;;;;;;;11.31;80.81;94567.50;5106377;28;20111;-73
2023/11/01 04:43:29;;;;;;;6.30;3.55;;;;;;;11.37;79.52;94561.75;5088756;28;20048;-73
2023/11/01 04:45:55;;;;;;;7.93;5.95;;;;;;;11.35;79.38;94555.03;5104654;28;20027;-73
2023/11/01 04:48:21;;;;;;;6.35;4.68;;;;;;;11.32;79.51;94561.34;5090502;28;20039;-74
2023/11/01 04:50:48;;;;;;;9.35;4.15;;;;;;;11.19;80.27;94566.78;5093168;28;20043;-73
2023/11/01 04:53:15;;;;;;;5.57;3.85;;;;;;;11.24;80.25;94573.38;5109150;28;20497;-73
2023/11/01 04:55:40;;;;;;;5.75;3.60;;;;;;;11.27;79.97;94567.91;5109298;28;20481;-73
2023/11/01 04:58:05;;;;;;;6.95;3.90;;;;;;;11.25;79.64;94569.81;5108883;28;20039;-73
2023/11/01 05:00:31;;;;;;;5.68;3.88;;;;;;;11.24;79.93;94574.19;5110539;28;20355;-73
2023/11/01 05:02:56;;;;;;;6.20;3.78;;;;;;;11.14;80.21;94576.81;5108982;28;20055;-73
2023/11/01 05:05:22;;;;;;;5.97;4.07;;;;;;;11.26;81.26;94576.69;5110851;28;20038;-73
2023/11/01 05:07:47;;;;;;;6.28;3.85;;;;;;;11.24;81.31;94581.19;5109812;28;20481;-73
2023/11/01 05:10:12;;;;;;;9.55;4.70;;;;;;;11.10;81.65;94580.63;5110701;28;20031;-73
2023/11/01 05:12:38;;;;;;;6.70;4.20;;;;;;;11.03;82.63;94589.09;5109403;28;20035;-73
2023/11/01 05:15:03;;;;;;;8.70;4.30;;;;;;;11.09;82.79;94591.19;5091976;28;20039;-73
2023/11/01 05:17:30;;;;;;;7.78;4.22;;;;;;;11.05;83.16;94582.00;5075032;28;20480;-73
2023/11/01 05:19:55;;;;;;;7.10;4.10;;;;;;;11.12;82.79;94604.72;5108446;27;20036;-73
2023/11/01 05:22:20;;;;;;;5.78;3.85;;;;;;;11.26;81.95;94607.88;5108382;27;20038;-73
2023/11/01 05:24:46;;;;;;;6.68;3.85;;;;;;;10.98;81.40;94606.88;5110159;27;20042;-73
2023/11/01 05:27:12;;;;;;;5.22;3.60;;;;;;;10.94;81.61;94611.50;5107419;27;20028;-73
2023/11/01 05:29:38;;;;;;;5.50;3.30;;;;;;;10.82;81.74;94623.81;5106959;27;20028;-74
2023/11/01 05:32:03;;;;;;;7.22;3.63;;;;;;;10.92;81.00;94619.47;5109439;27;20520;-74
2023/11/01 05:34:29;;;;;;;6.65;3.92;;;;;;;10.84;82.69;94618.50;5106362;28;20043;-73
2023/11/01 05:36:54;;;;;;;12.50;4.63;;;;;;;10.83;84.38;94614.22;5109460;28;20027;-73
2023/11/01 05:39:19;;;;;;;7.80;4.05;;;;;;;10.87;84.20;94606.03;5089841;28;20101;-74
2023/11/01 05:41:46;;;;;;;10.23;4.35;;;;;;;10.93;84.65;94610.69;5092067;28;20035;-73
2023/11/01 05:44:12;;;;;;;7.68;4.57;;;;;;;11.14;84.12;94627.97;5108411;28;20064;-73
2023/11/01 05:46:37;;;;;;;7.50;4.03;;;;;;;11.11;84.01;94639.44;5108794;28;20039;-73
2023/11/01 05:49:04;;;;;;;6.85;4.20;;;;;;;11.15;83.99;94633.03;5089351;28;20106;-73
2023/11/01 05:51:29;;;;;;;7.28;3.95;;;;;;;11.10;83.96;94616.19;5091628;28;20053;-73
2023/11/01 05:53:55;;;;;;;10.18;4.13;;;;;;;11.19;83.76;94642.19;5108052;28;20031;-73
2023/11/01 05:56:21;;;;;;;5.72;3.80;;;;;;;11.19;83.45;94639.59;5105600;28;20096;-73
2023/11/01 05:58:47;;;;;;;6.28;3.95;;;;;;;11.28;83.41;94637.16;5088790;28;20020;-73
2023/11/01 06:01:12;;;;;;;6.18;3.40;;;;;;;11.43;82.91;94648.00;5107895;28;20043;-73
2023/11/01 06:03:38;;;;;;;5.55;3.30;;;;;;;11.45;82.26;94630.44;5090819;28;20046;-73
2023/11/01 06:06:04;;;;;;;5.75;4.25;;;;;;;11.28;83.63;94630.19;5108637;28;20043;-73
2023/11/01 06:08:29;;;;;;;6.90;4.13;;;;;;;11.25;84.54;94622.63;5089548;28;20031;-73
2023/11/01 06:10:55;;;;;;;7.03;3.92;;;;;;;11.30;84.09;94627.44;5106953;27;20019;-73
2023/11/01 06:13:21;;;;;;;5.97;3.50;;;;;;;11.58;83.37;94649.22;5107240;28;20031;-73
2023/11/01 06:15:48;;;;;;;5.72;3.50;;;;;;;11.50;81.51;94646.47;5091275;28;20043;-73
2023/11/01 06:18:13;;;;;;;9.40;4.53;;;;;;;11.22;83.97;94653.28;5090034;28;20027;-73
2023/11/01 06:20:38;;;;;;;9.23;5.20;;;;;;;11.37;83.98;94659.75;5141942;27;20035;-73
2023/11/01 06:23:10;;;;;;;9.48;5.45;;;;;;;11.37;84.46;94654.56;5111528;28;20012;-74
2023/11/01 06:25:37;;;;;;;7.72;4.80;;;;;;;11.40;83.98;94665.50;5142666;27;20321;-73
2023/11/01 06:28:02;;;;;;;7.43;4.65;;;;;;;11.38;83.15;94659.59;5109625;28;20493;-74
2023/11/01 06:30:29;;;;;;;6.60;4.35;;;;;;;11.27;83.01;94649.31;5143883;27;20103;-74
2023/11/01 06:32:54;;;;;;;7.43;4.20;;;;;;;11.39;83.67;94673.44;5106335;28;20429;-73
2023/11/01 06:35:23;;;;;;;6.25;4.30;;;;;;;11.40;83.57;94669.88;5104585;28;20031;-73
2023/11/01 06:37:48;;;;;;;7.20;4.10;;;;;;;11.43;82.92;94664.41;5106597;28;20500;-74
2023/11/01 06:40:14;;;;;;;6.50;4.13;;;;;;;11.34;82.02;94639.22;5108744;27;20028;-73
2023/11/01 06:42:40;;;;;;;7.75;4.38;;;;;;;11.75;81.78;94658.09;5090244;28;20023;-73
2023/11/01 06:45:06;;;;;;;6.38;3.72;;;;;;;11.77;81.29;94664.00;5107875;28;20034;-73
2023/11/01 06:47:31;;;;;;;5.25;3.53;;;;;;;11.91;81.30;94653.19;5107991;28;20035;-73
2023/11/01 06:49:57;;;;;;;5.85;3.45;;;;;;;12.00;80.76;94662.75;5109406;28;20032;-74
2023/11/01 06:52:22;;;;;;;5.20;3.28;;;;;;;12.31;79.00;94662.56;5125771;27;20042;-70
2023/11/01 06:54:48;;;;;;;8.35;3.22;;;;;;;12.43;78.27;94653.63;5109322;27;20093;-74
2023/11/01 06:57:16;;;;;;;4.78;3.17;;;;;;;12.80;77.04;94667.63;5085850;28;20408;-72
2023/11/01 06:59:41;;;;;;;4.93;3.30;;;;;;;12.85;76.77;94671.44;5107553;28;20031;-70
2023/11/01 07:02:07;;;;;;;5.50;3.47;;;;;;;12.97;77.28;94677.28;5107741;28;20081;-72
2023/11/01 07:04:33;;;;;;;9.88;3.90;;;;;;;13.64;76.06;94686.50;5109144;28;20031;-74
2023/11/01 07:06:59;;;;;;;5.63;3.63;;;;;;;14.43;73.24;94687.47;5073105;28;20024;-74
2023/11/01 07:09:24;;;;;;;6.68;4.55;;;;;;;14.62;71.98;94677.81;5090325;28;20024;-74
2023/11/01 07:11:50;;;;;;;8.85;4.82;;;;;;;15.15;71.63;94692.44;5091289;28;20432;-74
2023/11/01 07:14:15;;;;;;;12.18;5.43;;;;;;;15.48;70.22;94688.13;5109707;28;20069;-75
2023/11/01 07:16:42;;;;;;;8.73;5.22;;;;;;;16.43;67.49;94690.34;5093542;28;20028;-75
2023/11/01 07:19:07;;;;;;;9.88;5.30;;;;;;;17.32;64.22;94693.72;5093714;28;20110;-74
2023/11/01 07:21:33;;;;;;;8.35;4.70;;;;;;;18.48;60.85;94685.72;5093639;28;20034;-73
2023/11/01 07:23:59;;;;;;;8.07;5.15;;;;;;;19.13;57.74;94684.25;5109616;28;20020;-73
2023/11/01 07:26:24;;;;;;;8.48;4.65;;;;;;;20.08;55.50;94687.78;5108304;28;20565;-74
2023/11/01 07:28:50;;;;;;;6.43;4.03;;;;;;;20.93;53.00;94697.44;5091476;28;20020;-74
2023/11/01 07:31:15;;;;;;;8.50;4.00;;;;;;;20.52;52.88;94698.09;5110280;28;20016;-74
2023/11/01 07:33:42;;;;;;;9.60;3.50;;;;;;;21.05;50.76;94699.53;5108980;28;20024;-74
2023/11/01 07:36:08;;;;;;;6.35;3.40;;;;;;;21.56;49.74;94697.38;5091040;28;20031;-74
2023/11/01 07:38:34;;;;;;;8.23;3.75;;;;;;;21.55;49.09;94687.00;5108227;28;20020;-74
2023/11/01 07:40:59;;;;;;;7.22;3.40;;;;;;;21.57;48.84;94699.00;5100803;28;20116;-74
2023/11/01 07:43:25;;;;;;;5.70;2.97;;;;;;;21.65;47.82;94698.00;5090915;28;20044;-74
2023/11/01 07:45:50;;;;;;;4.72;2.90;;;;;;;21.51;48.85;94709.56;5073200;28;20410;-74
2023/11/01 07:48:17;;;;;;;7.13;3.03;;;;;;;21.85;48.67;94709.47;5089681;28;20048;-74
2023/11/01 07:50:42;;;;;;;5.22;2.95;;;;;;;20.08;52.55;94706.25;5091432;28;20036;-74
2023/11/01 07:53:08;;;;;;;6.35;2.80;;;;;;;20.18;51.94;94700.66;5107909;28;20024;-74
2023/11/01 07:55:34;;;;;;;4.38;3.10;;;;;;;19.73;53.10;94705.28;5090004;28;20466;-74
2023/11/01 07:57:59;;;;;;;8.93;3.75;;;;;;;18.85;57.13;94706.94;5110096;28;20020;-74
2023/11/01 08:00:25;;;;;;;8.40;3.75;;;;;;;19.31;55.43;94706.78;5093198;28;20311;-74
2023/11/01 08:02:53;;;;;;;9.20;4.65;;;;;;;18.41;58.56;94716.34;5093039;28;20084;-74
2023/11/01 08:05:18;;;;;;;8.35;4.30;;;;;;;18.37;58.20;94704.56;5127034;28;20137;-73
2023/11/01 08:07:44;;;;;;;7.53;4.22;;;;;;;18.00;59.23;94723.75;5126940;28;20036;-74
2023/11/01 08:10:10;;;;;;;8.52;5.25;;;;;;;17.80;59.37;94711.06;5110211;28;20032;-74
2023/11/01 08:12:36;;;;;;;9.13;4.68;;;;;;;17.89;59.64;94726.78;5102150;28;20028;-74
2023/11/01 08:15:01;;;;;;;7.35;4.32;;;;;;;18.04;58.76;94704.00;5091062;28;20050;-74
2023/11/01 08:17:27;;;;;;;8.07;5.47;;;;;;;17.52;60.02;94733.50;5089529;28;20436;-74
2023/11/01 08:19:52;;;;;;;8.32;4.78;;;;;;;17.83;59.88;94729.13;5125487;27;20046;-74
2023/11/01 08:22:18;;;;;;;9.57;5.00;;;;;;;17.76;60.75;94711.56;5093551;28;20074;-74
2023/11/01 08:24:43;;;;;;;8.63;5.60;;;;;;;17.69;60.95;94737.72;5142672;27;20032;-74
2023/11/01 08:27:08;;;;;;;9.25;5.63;;;;;;;16.91;62.68;94731.44;5080032;28;20038;-74
2023/11/01 08:29:35;;;;;;;10.13;5.85;;;;;;;17.17;62.53;94738.25;5096845;28;20032;-73
2023/11/01 08:32:01;;;;;;;9.82;6.60;;;;;;;17.48;61.52;94745.34;5097201;28;20028;-74
2023/11/01 08:34:27;;;;;;;9.15;5.60;;;;;;;17.54;62.04;94745.47;5096989;28;20118;-74
2023/11/01 08:36:52;;;;;;;8.75;5.68;;;;;;;17.34;61.26;94733.75;5096797;28;20035;-74
2023/11/01 08:39:18;;;;;;;9.45;5.15;;;;;;;17.57;60.44;94750.38;5113621;28;20027;-74
2023/11/01 08:41:43;;;;;;;7.13;3.70;;;;;;;17.51;59.33;94739.75;5113822;28;20024;-74
2023/11/01 08:44:09;;;;;;;8.38;4.45;;;;;;;17.55;59.12;94741.03;5113666;28;20489;-74
2023/11/01 08:46:34;;;;;;;8.25;4.45;;;;;;;17.60;59.43;94750.03;5114521;28;20031;-73
2023/11/01 08:49:00;;;;;;;8.52;4.20;;;;;;;17.47;59.34;94728.78;5114698;28;20023;-74
2023/11/01 08:51:25;;;;;;;6.57;4.07;;;;;;;17.62;58.61;94739.38;5096542;28;20447;-73
2023/11/01 08:53:51;;;;;;;9.27;3.90;;;;;;;17.78;57.13;94754.25;5113430;28;20061;-74
2023/11/01 08:56:17;;;;;;;4.32;2.53;;;;;;;17.71;56.75;94740.16;5079606;28;20416;-74
2023/11/01 08:58:42;;;;;;;9.45;4.07;;;;;;;17.81;57.94;94760.00;5113451;28;20031;-74
2023/11/01 09:01:08;;;;;;;6.03;4.72;;;;;;;17.84;58.86;94767.53;5113168;28;20023;-74
2023/11/01 09:03:33;;;;;;;12.07;7.00;;;;;;;17.40;60.33;94733.88;5113335;28;20032;-74
2023/11/01 09:05:58;;;;;;;10.10;6.90;;;;;;;17.37;60.93;94763.09;5113071;28;20481;-74
2023/11/01 09:08:24;;;;;;;9.25;5.53;;;;;;;17.55;61.56;94785.69;5097236;28;20040;-75
2023/11/01 09:10:49;;;;;;;9.52;5.53;;;;;;;17.29;61.57;94784.13;5114045;28;20089;-76
2023/11/01 09:13:15;;;;;;;10.75;6.97;;;;;;;17.01;61.90;94791.59;5112994;28;20112;-76
2023/11/01 09:15:40;;;;;;;11.25;7.50;;;;;;;16.81;62.80;94792.94;5113655;28;20028;-75
2023/11/01 09:18:06;;;;;;;10.90;6.57;;;;;;;16.56;63.49;94803.41;5113430;28;20036;-75
2023/11/01 09:20:32;;;;;;;13.45;7.25;;;;;;;16.39;64.21;94802.59;5113223;28;20048;-75
2023/11/01 09:22:58;;;;;;;7.75;5.78;;;;;;;16.33;64.85;94774.41;5113443;28;20046;-76
2023/11/01 09:25:24;;;;;;;11.05;5.75;;;;;;;16.27;65.42;94798.66;5113792;28;20031;-75
2023/11/01 09:27:50;;;;;;;9.75;5.60;;;;;;;15.97;66.31;94753.72;5113419;28;20463;-75
2023/11/01 09:30:15;;;;;;;9.18;5.97;;;;;;;16.27;66.37;94796.03;5112811;28;20059;-75
2023/11/01 09:32:41;;;;;;;9.23;5.00;;;;;;;16.44;66.71;94789.00;5111998;28;20032;-75
2023/11/01 09:35:08;;;;;;;7.88;5.55;;;;;;;16.12;67.32;94774.88;5112934;28;20027;-76
2023/11/01 09:37:34;;;;;;;5.63;4.20;;;;;;;16.04;65.46;94782.72;5095915;28;20032;-75
2023/11/01 09:39:59;;;;;;;7.30;3.45;;;;;;;16.14;64.04;94780.78;5112147;28;20093;-75
2023/11/01 09:42:25;;;;;;;6.40;4.00;;;;;;;16.18;64.32;94774.22;5112844;28;20031;-75
2023/11/01 09:44:57;;;;;;;9.45;3.88;;;;;;;16.35;64.60;94771.59;5096192;28;20028;-75
2023/11/01 09:47:26;;;;;;;6.82;3.92;;;;;;;16.35;64.24;94756.69;5096298;28;20027;-75
2023/11/01 09:49:53;;;;;;;4.88;3.28;;;;;;;16.39;63.81;94755.41;5096166;28;20109;-74
2023/11/01 09:52:18;;;;;;;5.68;3.83;;;;;;;16.29;62.66;94750.31;5095721;28;20034;-74
2023/11/01 09:54:43;;;;;;;7.15;4.35;;;;;;;16.18;62.63;94739.31;5078916;28;20035;-75
2023/11/01 09:57:10;;;;;;;5.55;3.85;;;;;;;16.20;62.28;94759.16;5095737;28;20027;-74
2023/11/01 09:59:37;;;;;;;4.85;4.13;;;;;;;16.10;62.45;94766.34;5095708;28;20027;-74
2023/11/01 10:02:02;;;;;;;6.15;4.43;;;;;;;15.92;62.52;94766.47;5113903;28;20477;-75
2023/11/01 10:04:28;;;;;;;6.25;4.05;;;;;;;15.97;63.04;94764.22;5095628;28;20031;-75
2023/11/01 10:06:53;;;;;;;6.25;4.45;;;;;;;16.07;62.65;94761.41;5113970;28;20228;-75
2023/11/01 10:09:18;;;;;;;7.80;4.65;;;;;;;16.18;62.54;94768.16;5112407;28;20051;-75
2023/11/01 10:11:47;;;;;;;5.82;4.97;;;;;;;16.00;62.73;94765.69;5113579;28;20036;-75
2023/11/01 10:14:28;;;;;;;7.28;4.90;;;;;;;15.80;62.31;94745.03;5112322;28;20038;-75
2023/11/01 10:16:55;;;;;;;6.53;5.07;;;;;;;15.87;62.44;94768.75;5079861;28;20043;-75
2023/11/01 10:19:21;;;;;;;5.60;5.03;;;;;;;15.92;62.55;94756.00;5112392;28;20462;-75
2023/11/01 10:21:46;;;;;;;7.45;5.50;;;;;;;15.96;61.90;94746.81;5113233;28;20031;-74
2023/11/01 10:24:12;;;;;;;6.68;5.97;;;;;;;16.08;61.98;94756.03;5095274;28;20032;-75
2023/11/01 10:26:37;;;;;;;7.57;5.82;;;;;;;16.22;61.58;94759.00;5112319;28;20031;-75
2023/11/01 10:29:02;;;;;;;6.40;5.57;;;;;;;16.29;61.65;94754.72;5111851;28;20092;-74
2023/11/01 10:31:28;;;;;;;7.32;5.88;;;;;;;16.38;61.31;94760.78;5094914;28;20416;-74
2023/11/01 10:33:53;;;;;;;6.95;5.75;;;;;;;16.56;60.96;94758.00;5113029;28;20028;-75
2023/11/01 10:36:20;;;;;;;7.10;5.70;;;;;;;16.59;60.30;94742.75;5111845;28;20532;-75
2023/11/01 10:38:46;;;;;;;6.38;5.57;;;;;;;16.77;60.04;94761.00;5111985;28;20024;-75
2023/11/01 10:41:11;;;;;;;9.25;6.80;;;;;;;16.77;59.60;94745.25;5077980;28;20023;-75
2023/11/01 10:43:37;;;;;;;8.18;6.32;;;;;;;16.83;59.78;94762.94;5094388;28;20044;-74
2023/11/01 10:46:02;;;;;;;6.03;5.47;;;;;;;16.76;59.23;94740.94;5113213;28;20035;-74
2023/11/01 10:48:28;;;;;;;8.73;5.80;;;;;;;16.78;58.78;94743.44;5111555;28;20051;-75
2023/11/01 10:50:54;;;;;;;6.32;5.28;;;;;;;16.88;58.04;94750.16;5094780;28;20087;-74
2023/11/01 10:53:22;;;;;;;6.47;5.35;;;;;;;16.83;58.55;94744.56;5094526;28;20034;-74
2023/11/01 10:55:51;;;;;;;7.75;5.70;;;;;;;16.94;57.85;94741.59;5095158;28;20035;-74
2023/11/01 10:58:23;;;;;;;8.60;5.53;;;;;;;16.70;56.77;94731.94;5094619;28;20046;-74
2023/11/01 11:00:53;;;;;;;8.27;4.65;;;;;;;16.63;56.95;94730.13;5094717;28;20031;-74
2023/11/01 11:03:41;;;;;;;9.00;5.20;;;;;;;16.85;57.27;94734.72;5094841;28;20063;-74
2023/11/01 11:06:15;;;;;;;8.02;5.32;;;;;;;16.87;56.47;94739.81;5094487;28;20036;-75
2023/11/01 11:08:40;;;;;;;5.43;4.90;;;;;;;16.64;56.35;94734.41;5095174;28;20103;-75
2023/11/01 11:11:16;;;;;;;5.85;5.25;;;;;;;16.82;56.89;94739.47;5111610;28;20470;-75
2023/11/01 11:13:42;;;;;;;7.45;4.70;;;;;;;16.81;56.18;94733.41;5094397;28;20080;-75
2023/11/01 11:16:12;;;;;;;6.75;4.50;;;;;;;16.90;56.09;94736.84;5112876;28;20031;-75
2023/11/01 11:18:44;;;;;;;6.43;4.82;;;;;;;16.96;56.10;94739.59;5111334;28;20505;-74
2023/11/01 11:21:30;;;;;;;5.63;4.80;;;;;;;17.15;55.75;94735.78;5111331;28;20015;-75
2023/11/01 11:23:57;;;;;;;5.35;4.63;;;;;;;17.16;55.07;94729.56;5111204;28;20580;-74
2023/11/01 11:26:37;;;;;;;4.97;4.13;;;;;;;17.38;54.74;94719.28;5110948;28;20080;-74